Time;durP1;ratioP1;P1;durP2;ratioP2;P2;SDS_P1;SDS_P2;PMS_P1;PMS_P2;Temp;Humidity;BMP_temperature;BMP_pressure;BME280_temperature;BME280_humidity;BME280_pressure;Samples;Min_cycle;Max_cycle;Signal;HPM_P1;HPM_P2
2022/07/24 00:02:14;;;;;;;3.10;2.42;;;16.20;99.90;;;;;;5014414;28;20368;-70
2022/07/24 00:04:39;;;;;;;3.38;2.38;;;16.10;99.90;;;;;;5014195;28;20095;-70
2022/07/24 00:07:05;;;;;;;3.28;2.58;;;16.10;99.90;;;;;;5014037;28;20072;-70
2022/07/24 00:09:31;;;;;;;4.10;2.70;;;16.10;99.90;;;;;;4996951;28;20046;-71
2022/07/24 00:11:58;;;;;;;4.15;2.67;;;16.10;99.90;;;;;;5013848;28;20050;-71
2022/07/24 00:14:24;;;;;;;3.30;2.47;;;16.10;99.90;;;;;;4996844;28;20042;-70
2022/07/24 00:16:50;;;;;;;3.55;2.67;;;16.10;99.90;;;;;;5014153;28;20104;-70
2022/07/24 00:19:15;;;;;;;4.18;2.80;;;16.10;99.90;;;;;;5014565;28;20422;-72
2022/07/24 00:21:41;;;;;;;3.22;2.38;;;16.10;99.90;;;;;;5014772;28;20144;-70
2022/07/24 00:24:08;;;;;;;4.40;3.20;;;16.00;99.90;;;;;;5012949;28;20049;-70
2022/07/24 00:26:34;;;;;;;4.05;2.70;;;16.00;99.90;;;;;;5014376;28;20132;-70
2022/07/24 00:29:00;;;;;;;4.63;3.10;;;16.00;99.90;;;;;;5014151;28;20071;-70
2022/07/24 00:31:26;;;;;;;3.92;2.60;;;16.00;99.90;;;;;;5013834;28;20049;-70
2022/07/24 00:33:52;;;;;;;3.60;2.80;;;15.90;99.90;;;;;;5013733;28;20459;-71
2022/07/24 00:36:17;;;;;;;3.30;2.50;;;15.90;99.90;;;;;;5013768;28;20514;-70
2022/07/24 00:38:43;;;;;;;4.38;2.45;;;15.90;99.90;;;;;;4996196;28;20462;-70
2022/07/24 00:41:09;;;;;;;3.72;2.80;;;15.80;99.90;;;;;;5013754;28;20048;-71
2022/07/24 00:43:55;;;;;;;3.90;2.35;;;15.80;99.90;;;;;;4980170;28;20037;-70
2022/07/24 00:46:20;;;;;;;3.57;2.80;;;15.80;99.90;;;;;;4996560;28;20437;-70
2022/07/24 00:48:46;;;;;;;3.20;2.55;;;15.80;99.90;;;;;;4996963;28;20049;-70
2022/07/24 00:51:13;;;;;;;3.17;2.42;;;15.70;99.90;;;;;;5014037;28;20363;-70
2022/07/24 00:53:38;;;;;;;3.70;2.53;;;15.70;99.90;;;;;;5013471;28;20129;-70
2022/07/24 00:56:04;;;;;;;4.15;2.90;;;15.70;99.90;;;;;;5014328;28;20077;-70
2022/07/24 00:58:30;;;;;;;4.45;2.92;;;15.70;99.90;;;;;;5013553;28;20056;-70
2022/07/24 01:00:56;;;;;;;4.60;2.50;;;15.70;99.90;;;;;;5013462;28;20371;-70
2022/07/24 01:03:21;;;;;;;4.22;3.03;;;15.70;99.90;;;;;;5014017;28;20038;-70
2022/07/24 01:05:47;;;;;;;4.07;2.60;;;15.70;99.90;;;;;;4979361;28;20065;-70
2022/07/24 01:08:14;;;;;;;3.05;2.58;;;15.70;99.90;;;;;;5013963;28;20073;-70
2022/07/24 01:10:40;;;;;;;4.57;2.70;;;15.70;99.90;;;;;;5013912;28;20108;-70
2022/07/24 01:13:06;;;;;;;4.78;3.40;;;15.70;99.90;;;;;;5013820;28;20042;-70
2022/07/24 01:15:32;;;;;;;3.72;2.70;;;15.70;99.90;;;;;;5013305;28;20048;-70
2022/07/24 01:17:57;;;;;;;3.97;2.58;;;15.70;99.90;;;;;;5013188;28;20374;-70
2022/07/24 01:20:23;;;;;;;4.38;2.50;;;15.70;99.90;;;;;;5013628;28;20046;-70
2022/07/24 01:22:49;;;;;;;3.75;2.70;;;15.70;99.90;;;;;;5013950;28;20402;-70
2022/07/24 01:25:15;;;;;;;4.03;2.80;;;15.70;99.90;;;;;;4995909;28;20049;-70
2022/07/24 01:27:40;;;;;;;3.17;2.50;;;15.70;99.90;;;;;;4996249;28;20053;-70
2022/07/24 01:30:07;;;;;;;3.33;2.60;;;15.60;99.90;;;;;;4996209;28;20157;-70
2022/07/24 01:32:33;;;;;;;3.08;2.60;;;15.60;99.90;;;;;;5013078;28;20479;-70
2022/07/24 01:34:58;;;;;;;4.90;3.03;;;15.60;99.90;;;;;;5014732;28;20060;-70
2022/07/24 01:37:24;;;;;;;2.92;2.55;;;15.60;99.90;;;;;;5017015;28;20045;-70
2022/07/24 01:39:50;;;;;;;3.70;2.70;;;15.60;99.90;;;;;;5000421;28;20069;-70
2022/07/24 01:42:15;;;;;;;3.33;2.40;;;15.60;99.90;;;;;;5017440;28;20050;-70
2022/07/24 01:44:41;;;;;;;3.83;2.55;;;15.60;99.90;;;;;;5016831;28;20129;-70
2022/07/24 01:47:07;;;;;;;3.40;2.50;;;15.60;99.90;;;;;;4999656;28;20085;-70
2022/07/24 01:49:32;;;;;;;3.80;2.95;;;15.60;99.90;;;;;;4999190;28;20449;-70
2022/07/24 01:51:58;;;;;;;3.17;2.53;;;15.60;99.90;;;;;;5016631;28;20100;-70
2022/07/24 01:54:24;;;;;;;5.80;2.72;;;15.60;99.90;;;;;;5017190;28;20049;-71
2022/07/24 01:56:49;;;;;;;4.10;2.70;;;15.60;99.90;;;;;;5016901;28;20157;-70
2022/07/24 01:59:15;;;;;;;3.40;2.63;;;15.60;99.90;;;;;;5016877;28;20463;-70
2022/07/24 02:01:41;;;;;;;3.83;2.63;;;15.60;99.90;;;;;;5017120;28;20406;-70
2022/07/24 02:04:06;;;;;;;4.30;2.60;;;15.60;99.90;;;;;;5016245;28;20115;-70
2022/07/24 02:06:32;;;;;;;4.40;2.60;;;15.50;99.90;;;;;;5016198;28;20129;-70
2022/07/24 02:08:58;;;;;;;3.42;2.60;;;15.50;99.90;;;;;;5017438;28;20084;-70
2022/07/24 02:11:24;;;;;;;3.35;2.75;;;15.60;99.90;;;;;;5016395;28;20120;-70
2022/07/24 02:13:49;;;;;;;4.65;2.67;;;15.60;99.90;;;;;;5016620;28;20525;-70
2022/07/24 02:16:15;;;;;;;4.43;2.83;;;15.60;99.90;;;;;;5016309;28;20045;-70
2022/07/24 02:18:40;;;;;;;4.63;2.90;;;15.50;99.90;;;;;;5016199;28;20129;-70
2022/07/24 02:21:06;;;;;;;4.85;3.20;;;15.60;99.90;;;;;;5016401;28;20054;-70
2022/07/24 02:23:32;;;;;;;3.70;2.58;;;15.60;99.90;;;;;;4998657;28;20077;-70
2022/07/24 02:25:57;;;;;;;3.63;2.30;;;15.60;99.90;;;;;;4998815;28;20050;-68
2022/07/24 02:28:23;;;;;;;3.83;2.83;;;15.60;99.90;;;;;;5016065;28;20497;-69
2022/07/24 02:30:49;;;;;;;4.53;2.60;;;15.60;99.90;;;;;;4999482;28;20221;-69
2022/07/24 02:33:14;;;;;;;3.38;2.42;;;15.60;99.90;;;;;;4998672;28;20053;-68
2022/07/24 02:35:40;;;;;;;3.72;2.50;;;15.60;99.90;;;;;;5015927;28;20046;-69
2022/07/24 02:38:06;;;;;;;4.28;2.50;;;15.50;99.90;;;;;;5015932;28;20045;-69
2022/07/24 02:40:32;;;;;;;4.13;2.60;;;15.60;99.90;;;;;;4998689;28;20050;-70
2022/07/24 02:42:58;;;;;;;4.65;2.55;;;15.50;99.90;;;;;;5016106;28;20052;-68
2022/07/24 02:45:24;;;;;;;3.30;2.90;;;15.50;99.90;;;;;;4998401;28;20108;-69
2022/07/24 02:47:52;;;;;;;3.22;2.47;;;15.50;99.90;;;;;;5015220;28;20042;-69
2022/07/24 02:50:19;;;;;;;3.20;2.50;;;15.50;99.90;;;;;;5015990;28;20068;-68
2022/07/24 02:52:45;;;;;;;5.43;2.60;;;15.50;99.90;;;;;;5015659;28;20042;-69
2022/07/24 02:55:11;;;;;;;4.78;2.83;;;15.50;99.90;;;;;;5015911;28;20446;-68
2022/07/24 02:57:36;;;;;;;3.47;2.65;;;15.60;99.90;;;;;;5015604;28;20545;-68
2022/07/24 03:00:08;;;;;;;3.88;2.58;;;15.60;99.90;;;;;;4997966;28;20164;-68
2022/07/24 03:02:34;;;;;;;3.88;2.67;;;15.60;99.90;;;;;;5016161;28;20045;-70
2022/07/24 03:05:00;;;;;;;3.70;2.90;;;15.70;99.90;;;;;;5015857;28;20050;-68
2022/07/24 03:07:27;;;;;;;3.08;2.67;;;15.70;99.90;;;;;;5015329;28;20132;-68
2022/07/24 03:09:52;;;;;;;3.88;2.90;;;15.80;99.90;;;;;;5015319;28;20128;-68
2022/07/24 03:12:18;;;;;;;3.97;2.53;;;15.80;99.90;;;;;;5015278;28;20141;-68
2022/07/24 03:14:44;;;;;;;4.38;2.72;;;15.80;99.90;;;;;;5015186;28;20057;-69
2022/07/24 03:17:09;;;;;;;3.50;2.47;;;15.80;99.90;;;;;;5015164;28;20049;-68
2022/07/24 03:19:35;;;;;;;3.50;2.67;;;15.80;99.90;;;;;;5015119;28;20042;-69
2022/07/24 03:22:01;;;;;;;3.83;2.88;;;15.80;99.90;;;;;;5015092;28;20049;-68
2022/07/24 03:24:26;;;;;;;3.95;2.47;;;15.90;99.90;;;;;;4997623;28;20489;-69
2022/07/24 03:26:52;;;;;;;4.28;2.72;;;15.90;99.90;;;;;;5014871;28;20050;-69
2022/07/24 03:29:18;;;;;;;4.28;2.80;;;15.90;99.90;;;;;;4997600;28;20136;-69
2022/07/24 03:31:43;;;;;;;3.50;2.50;;;15.90;99.90;;;;;;5015073;28;20129;-68
2022/07/24 03:34:09;;;;;;;3.92;2.80;;;15.90;99.90;;;;;;5014607;28;20038;-70
2022/07/24 03:36:35;;;;;;;4.18;3.13;;;16.00;99.90;;;;;;5014821;28;20041;-69
2022/07/24 03:39:02;;;;;;;4.00;2.60;;;16.00;99.90;;;;;;5014791;28;20052;-68
2022/07/24 03:41:28;;;;;;;4.15;2.90;;;16.00;99.90;;;;;;4997497;28;20050;-68
2022/07/24 03:43:53;;;;;;;3.22;2.40;;;16.00;99.90;;;;;;5014671;28;20065;-69
2022/07/24 03:46:19;;;;;;;3.60;2.70;;;16.00;99.90;;;;;;4997396;28;20054;-69
2022/07/24 03:48:45;;;;;;;3.63;2.70;;;16.00;99.90;;;;;;4997287;28;20050;-69
2022/07/24 03:51:10;;;;;;;3.58;2.88;;;16.00;99.90;;;;;;5014629;28;20125;-69
2022/07/24 03:53:36;;;;;;;3.67;2.80;;;16.00;99.90;;;;;;5014196;28;20581;-69
2022/07/24 03:56:06;;;;;;;3.08;2.63;;;16.00;99.90;;;;;;4997130;28;20054;-70
2022/07/24 03:58:32;;;;;;;3.78;2.80;;;16.00;99.90;;;;;;4996111;28;20050;-68
2022/07/24 04:00:58;;;;;;;4.00;2.95;;;16.10;99.90;;;;;;5014547;28;20453;-69
2022/07/24 04:03:23;;;;;;;3.72;2.97;;;16.10;99.90;;;;;;5014444;28;20042;-69
2022/07/24 04:05:49;;;;;;;4.63;2.92;;;16.10;99.90;;;;;;5014524;28;20382;-68
2022/07/24 04:08:15;;;;;;;3.58;2.72;;;16.10;99.90;;;;;;5014734;28;20050;-69
2022/07/24 04:10:41;;;;;;;3.20;2.60;;;16.10;99.90;;;;;;5014968;28;20096;-70
2022/07/24 04:13:06;;;;;;;3.60;2.78;;;16.10;99.90;;;;;;5014174;28;20042;-69
2022/07/24 04:15:32;;;;;;;4.00;2.50;;;16.10;99.90;;;;;;5014140;28;20050;-69
2022/07/24 04:17:58;;;;;;;3.72;2.63;;;16.10;99.90;;;;;;5014589;28;20172;-69
2022/07/24 04:20:23;;;;;;;3.70;2.65;;;16.10;99.90;;;;;;5014355;28;20048;-69
2022/07/24 04:22:49;;;;;;;3.80;2.83;;;16.20;99.90;;;;;;4996703;28;20049;-69
2022/07/24 04:25:15;;;;;;;3.60;2.75;;;16.20;99.90;;;;;;5014468;28;20052;-70
2022/07/24 04:27:40;;;;;;;4.80;2.83;;;16.30;99.90;;;;;;4980295;28;20046;-69
2022/07/24 04:30:06;;;;;;;4.03;2.65;;;16.30;99.90;;;;;;5013989;28;20100;-70
2022/07/24 04:32:32;;;;;;;3.30;2.63;;;16.30;99.90;;;;;;4996460;28;20148;-69
2022/07/24 04:34:58;;;;;;;4.20;2.60;;;16.30;99.90;;;;;;5014058;28;20541;-69
2022/07/24 04:37:23;;;;;;;3.03;2.40;;;16.30;99.90;;;;;;5014057;28;20050;-69
2022/07/24 04:39:49;;;;;;;5.45;2.80;;;16.40;99.90;;;;;;5013775;28;20447;-69
2022/07/24 04:42:15;;;;;;;3.55;2.67;;;16.40;99.90;;;;;;5013800;28;20053;-69
2022/07/24 04:44:41;;;;;;;3.50;2.80;;;16.40;99.90;;;;;;5014258;28;20081;-69
2022/07/24 04:47:06;;;;;;;3.92;2.83;;;16.40;99.90;;;;;;5013866;28;20053;-68
2022/07/24 04:49:32;;;;;;;3.72;2.90;;;16.40;99.90;;;;;;4980995;28;20455;-69
2022/07/24 04:51:58;;;;;;;4.07;3.13;;;16.40;99.90;;;;;;4996589;28;20046;-68
2022/07/24 04:54:24;;;;;;;4.72;2.85;;;16.40;99.90;;;;;;5013302;28;20046;-71
2022/07/24 04:56:49;;;;;;;4.22;2.80;;;16.40;99.90;;;;;;5013486;28;20046;-71
2022/07/24 04:59:15;;;;;;;4.65;2.88;;;16.40;99.90;;;;;;5013483;28;20049;-71
2022/07/24 05:01:41;;;;;;;3.78;2.72;;;16.40;99.90;;;;;;5013951;28;20129;-71
2022/07/24 05:04:06;;;;;;;4.18;2.90;;;16.50;99.90;;;;;;5013916;28;20078;-71
2022/07/24 05:06:32;;;;;;;5.80;2.90;;;16.50;99.90;;;;;;5013923;28;20112;-71
2022/07/24 05:08:58;;;;;;;3.40;2.60;;;16.60;99.90;;;;;;5013707;28;20057;-70
2022/07/24 05:11:24;;;;;;;3.38;2.70;;;16.70;99.90;;;;;;5017435;28;20132;-71
2022/07/24 05:13:49;;;;;;;3.72;2.50;;;16.80;99.90;;;;;;5017339;28;20045;-71
2022/07/24 05:16:15;;;;;;;4.70;2.85;;;16.90;99.90;;;;;;5017386;28;20054;-71
2022/07/24 05:18:41;;;;;;;3.40;2.85;;;17.00;99.90;;;;;;5000763;28;20067;-71
2022/07/24 05:21:07;;;;;;;4.38;2.97;;;17.00;99.90;;;;;;5018153;28;20046;-71
2022/07/24 05:23:33;;;;;;;4.03;3.17;;;17.10;99.90;;;;;;5000656;28;20058;-71
2022/07/24 05:25:59;;;;;;;3.78;3.10;;;17.10;99.90;;;;;;5017230;28;20048;-71
2022/07/24 05:28:24;;;;;;;3.72;2.83;;;17.20;99.90;;;;;;5017244;28;20038;-71
2022/07/24 05:30:50;;;;;;;3.50;3.05;;;17.20;99.90;;;;;;5017422;28;20379;-71
2022/07/24 05:33:15;;;;;;;3.63;3.10;;;17.20;99.90;;;;;;5016709;28;20049;-71
2022/07/24 05:35:41;;;;;;;3.83;3.30;;;17.30;99.90;;;;;;4999435;28;20042;-71
2022/07/24 05:38:07;;;;;;;3.42;3.00;;;17.30;99.90;;;;;;5017523;28;20394;-71
2022/07/24 05:40:32;;;;;;;4.57;3.63;;;17.30;99.90;;;;;;5017736;28;20128;-71
2022/07/24 05:42:58;;;;;;;3.42;3.13;;;17.40;99.90;;;;;;5017401;28;20523;-71
2022/07/24 05:45:24;;;;;;;4.15;3.67;;;17.40;99.90;;;;;;5016851;28;20050;-72
2022/07/24 05:47:50;;;;;;;4.20;3.38;;;17.40;99.90;;;;;;5017335;28;20459;-71
2022/07/24 05:50:15;;;;;;;5.10;3.35;;;17.50;99.90;;;;;;5017337;28;20242;-71
2022/07/24 05:52:42;;;;;;;4.35;3.53;;;17.60;99.90;;;;;;5016667;28;20041;-72
2022/07/24 05:55:08;;;;;;;4.25;3.78;;;17.70;99.90;;;;;;4999639;28;20054;-71
2022/07/24 05:57:34;;;;;;;5.03;3.75;;;17.80;99.90;;;;;;5016724;28;20085;-71
2022/07/24 06:00:00;;;;;;;4.55;3.95;;;17.90;99.90;;;;;;5017349;28;20135;-71
2022/07/24 06:02:25;;;;;;;4.63;3.88;;;18.00;99.90;;;;;;4999094;28;20045;-70
2022/07/24 06:04:51;;;;;;;5.65;3.92;;;18.10;99.90;;;;;;5016155;28;20088;-70
2022/07/24 06:07:17;;;;;;;5.38;3.83;;;18.10;99.90;;;;;;5016495;28;20072;-71
2022/07/24 06:09:43;;;;;;;4.78;3.92;;;18.20;99.90;;;;;;5016433;28;20050;-70
2022/07/24 06:12:08;;;;;;;5.65;4.15;;;18.30;99.90;;;;;;4998884;28;20085;-70
2022/07/24 06:14:34;;;;;;;4.72;4.10;;;18.40;99.90;;;;;;5016288;28;20434;-70
2022/07/24 06:17:00;;;;;;;6.28;4.25;;;18.50;99.90;;;;;;5016547;28;20455;-70
2022/07/24 06:19:26;;;;;;;5.65;4.30;;;18.60;99.90;;;;;;5016267;28;20100;-70
2022/07/24 06:21:52;;;;;;;6.20;4.18;;;18.70;99.90;;;;;;5015159;28;20073;-71
2022/07/24 06:24:19;;;;;;;5.05;4.43;;;18.90;99.90;;;;;;5016703;28;20077;-70
2022/07/24 06:26:44;;;;;;;6.60;4.68;;;18.90;99.90;;;;;;5016824;28;20462;-71
2022/07/24 06:29:10;;;;;;;5.28;4.20;;;19.10;99.90;;;;;;4998660;28;20078;-70
2022/07/24 06:31:36;;;;;;;6.28;4.43;;;19.20;99.90;;;;;;5016346;28;20049;-70
2022/07/24 06:34:01;;;;;;;5.78;4.75;;;19.20;99.90;;;;;;5016369;28;20045;-69
2022/07/24 06:36:27;;;;;;;5.90;4.57;;;19.30;99.90;;;;;;5016423;28;20041;-71
2022/07/24 06:38:53;;;;;;;7.43;4.80;;;19.40;99.90;;;;;;5015885;28;20045;-70
2022/07/24 06:41:19;;;;;;;8.18;5.30;;;19.50;99.90;;;;;;4999321;28;20088;-70
2022/07/24 06:43:45;;;;;;;5.65;4.75;;;19.60;99.90;;;;;;4998243;28;20069;-71
2022/07/24 06:46:10;;;;;;;5.40;4.90;;;19.70;99.90;;;;;;5016079;28;20147;-70
2022/07/24 06:48:38;;;;;;;5.93;5.22;;;19.80;99.90;;;;;;5015981;28;20077;-71
2022/07/24 06:51:04;;;;;;;6.35;5.53;;;19.80;99.90;;;;;;5015732;28;20104;-70
2022/07/24 06:53:29;;;;;;;6.38;5.00;;;19.90;99.90;;;;;;5015587;28;20041;-70
2022/07/24 06:55:55;;;;;;;6.55;4.78;;;19.90;99.90;;;;;;5016347;28;20041;-65
2022/07/24 06:58:21;;;;;;;6.07;5.47;;;20.00;99.90;;;;;;5015992;28;20116;-65
2022/07/24 07:00:48;;;;;;;7.68;5.07;;;20.10;99.90;;;;;;5015692;28;20041;-65
2022/07/24 07:03:14;;;;;;;8.32;5.32;;;20.20;99.90;;;;;;5015522;28;20042;-65
2022/07/24 07:05:40;;;;;;;6.35;5.38;;;20.40;99.90;;;;;;5015350;28;20120;-65
2022/07/24 07:08:06;;;;;;;8.02;6.53;;;20.50;99.90;;;;;;5016468;28;20049;-65
2022/07/24 07:10:31;;;;;;;8.48;6.43;;;20.50;99.90;;;;;;4998740;28;20375;-65
2022/07/24 07:12:57;;;;;;;7.95;6.22;;;20.50;99.90;;;;;;5015213;28;20050;-65
2022/07/24 07:15:23;;;;;;;8.20;6.65;;;20.50;99.90;;;;;;5015534;28;20080;-65
2022/07/24 07:17:49;;;;;;;8.35;6.93;;;20.60;99.90;;;;;;5015160;28;20050;-65
2022/07/24 07:20:14;;;;;;;7.53;6.10;;;20.60;99.90;;;;;;5015279;28;20095;-65
2022/07/24 07:22:42;;;;;;;7.68;6.22;;;20.70;99.90;;;;;;5015461;28;20064;-65
2022/07/24 07:25:09;;;;;;;8.10;6.78;;;20.90;99.90;;;;;;5015912;28;20425;-65
2022/07/24 07:27:36;;;;;;;9.68;7.00;;;21.00;99.90;;;;;;5015291;28;20204;-66
2022/07/24 07:30:06;;;;;;;8.75;6.88;;;21.10;99.90;;;;;;5014949;28;20096;-65
2022/07/24 07:32:31;;;;;;;8.20;7.00;;;21.20;99.90;;;;;;5015111;28;20046;-65
2022/07/24 07:34:58;;;;;;;8.65;7.05;;;21.30;99.90;;;;;;4997210;28;20456;-65
2022/07/24 07:37:24;;;;;;;9.57;7.75;;;21.30;99.90;;;;;;5015046;28;20046;-66
2022/07/24 07:39:49;;;;;;;7.88;7.07;;;21.40;99.90;;;;;;5013787;28;20081;-65
2022/07/24 07:42:15;;;;;;;8.30;7.28;;;21.40;99.90;;;;;;5014548;28;20129;-65
2022/07/24 07:44:41;;;;;;;10.20;7.97;;;21.50;99.90;;;;;;5015094;28;20529;-65
2022/07/24 07:47:06;;;;;;;8.68;7.75;;;21.60;99.90;;;;;;5014571;28;20050;-65
2022/07/24 07:49:32;;;;;;;10.52;8.25;;;21.60;99.90;;;;;;5014872;28;20046;-65
2022/07/24 07:51:58;;;;;;;9.60;7.80;;;21.70;99.90;;;;;;5014932;28;20422;-65
2022/07/24 07:54:23;;;;;;;8.48;7.50;;;21.70;99.90;;;;;;4996901;28;20531;-65
2022/07/24 07:56:49;;;;;;;9.07;7.80;;;21.70;99.90;;;;;;4997139;28;20130;-66
2022/07/24 07:59:15;;;;;;;8.50;7.60;;;21.80;99.90;;;;;;4996721;28;20489;-65
2022/07/24 08:01:40;;;;;;;9.18;8.20;;;21.90;99.90;;;;;;4997093;28;20081;-65
2022/07/24 08:04:06;;;;;;;9.38;6.70;;;22.00;99.90;;;;;;5015048;28;20041;-65
2022/07/24 08:06:32;;;;;;;9.88;8.13;;;22.00;99.90;;;;;;5014657;28;20054;-65
2022/07/24 08:08:57;;;;;;;8.75;7.00;;;22.10;99.90;;;;;;5014181;28;20085;-66
2022/07/24 08:11:23;;;;;;;8.68;7.72;;;22.20;99.90;;;;;;5014148;28;20081;-65
2022/07/24 08:13:49;;;;;;;9.00;7.95;;;22.30;99.90;;;;;;5014290;28;20042;-66
2022/07/24 08:16:15;;;;;;;10.43;8.27;;;22.40;99.90;;;;;;5014916;28;20057;-65
2022/07/24 08:18:40;;;;;;;11.13;8.20;;;22.40;99.90;;;;;;5013831;28;20572;-65
2022/07/24 08:21:06;;;;;;;10.60;7.93;;;22.50;99.90;;;;;;5014057;28;20077;-64
2022/07/24 08:23:32;;;;;;;9.13;8.10;;;22.50;99.90;;;;;;5014801;28;20392;-65
2022/07/24 08:25:58;;;;;;;9.88;8.23;;;22.50;99.90;;;;;;5013906;28;20046;-65
2022/07/24 08:28:23;;;;;;;8.85;7.88;;;22.60;99.90;;;;;;5013945;28;20046;-65
2022/07/24 08:30:50;;;;;;;9.90;8.25;;;22.70;99.90;;;;;;5013696;28;20117;-65
2022/07/24 08:33:15;;;;;;;10.55;9.02;;;22.80;99.90;;;;;;5014330;28;20088;-65
2022/07/24 08:35:41;;;;;;;9.00;7.65;;;22.90;99.90;;;;;;4996668;28;20077;-65
2022/07/24 08:38:07;;;;;;;8.25;6.82;;;23.00;99.90;;;;;;5013672;28;20075;-64
2022/07/24 08:40:35;;;;;;;9.85;7.35;;;23.10;99.90;;;;;;5013918;28;20049;-66
2022/07/24 08:43:02;;;;;;;9.50;7.28;;;23.10;99.90;;;;;;5013611;28;20045;-65
2022/07/24 08:45:29;;;;;;;8.18;6.35;;;23.20;99.90;;;;;;5013366;28;20137;-66
2022/07/24 08:47:56;;;;;;;6.30;5.70;;;23.20;99.90;;;;;;5013692;28;20041;-65
2022/07/24 08:50:22;;;;;;;6.38;5.75;;;23.30;99.90;;;;;;4996409;28;20124;-64
2022/07/24 08:52:48;;;;;;;8.95;6.00;;;23.40;99.90;;;;;;5013467;28;20073;-65
2022/07/24 08:55:14;;;;;;;6.43;4.90;;;23.60;99.90;;;;;;5013405;28;20041;-65
2022/07/24 08:57:41;;;;;;;5.82;3.67;;;23.60;99.90;;;;;;5013529;28;20081;-65
2022/07/24 09:00:07;;;;;;;5.63;4.03;;;23.60;99.90;;;;;;5013526;28;20065;-64
2022/07/24 09:02:33;;;;;;;4.85;3.50;;;23.60;99.90;;;;;;5013450;28;20069;-65
2022/07/24 09:05:01;;;;;;;4.63;2.80;;;23.80;99.90;;;;;;5013067;28;20093;-65
2022/07/24 09:07:29;;;;;;;4.47;3.15;;;23.90;99.90;;;;;;5013400;28;20054;-65
2022/07/24 09:10:05;;;;;;;4.78;3.05;;;24.00;99.90;;;;;;5013391;28;20041;-65
2022/07/24 09:12:33;;;;;;;5.50;3.10;;;24.10;99.90;;;;;;5013147;28;20081;-65
2022/07/24 09:15:00;;;;;;;3.67;2.70;;;24.00;99.90;;;;;;5013733;28;20470;-65
2022/07/24 09:17:27;;;;;;;3.83;3.17;;;24.10;99.90;;;;;;5013544;28;20437;-65
2022/07/24 09:19:58;;;;;;;4.25;2.95;;;24.10;99.90;;;;;;5013792;28;20091;-65
2022/07/24 09:22:34;;;;;;;3.53;2.40;;;23.90;99.90;;;;;;4995643;28;20471;-65
2022/07/24 09:25:13;;;;;;;4.55;2.85;;;23.80;99.90;;;;;;5013826;28;20049;-65
2022/07/24 09:27:47;;;;;;;4.78;2.92;;;23.90;99.90;;;;;;5013278;28;20042;-64
2022/07/24 09:30:31;;;;;;;3.47;2.58;;;24.00;99.90;;;;;;5013707;28;20081;-65
2022/07/24 09:33:00;;;;;;;4.00;2.75;;;24.00;99.90;;;;;;4996334;28;20552;-64
2022/07/24 09:35:31;;;;;;;3.05;2.30;;;24.00;99.90;;;;;;5013285;28;20049;-66
2022/07/24 09:37:58;;;;;;;5.68;2.40;;;24.10;99.90;;;;;;5013337;28;20348;-65
2022/07/24 09:40:30;;;;;;;2.90;2.40;;;24.20;99.90;;;;;;4995504;28;20053;-65
2022/07/24 09:43:11;;;;;;;3.42;2.72;;;24.20;99.90;;;;;;5013062;28;20045;-65
2022/07/24 09:46:05;;;;;;;3.38;2.65;;;24.20;99.90;;;;;;5013593;28;20042;-65
2022/07/24 09:48:50;;;;;;;2.90;2.50;;;24.30;99.90;;;;;;5013098;28;20046;-65
2022/07/24 09:51:17;;;;;;;3.60;2.50;;;24.30;99.90;;;;;;5013546;28;20077;-65
2022/07/24 09:53:45;;;;;;;3.85;2.30;;;24.30;99.90;;;;;;4995398;28;20046;-65
2022/07/24 09:56:16;;;;;;;2.92;1.95;;;24.20;99.90;;;;;;4997800;28;20053;-65
2022/07/24 09:58:44;;;;;;;3.33;2.25;;;24.10;99.90;;;;;;5016703;28;20132;-65
2022/07/24 10:01:11;;;;;;;2.58;2.10;;;24.10;99.90;;;;;;5016662;28;20137;-65
2022/07/24 10:03:38;;;;;;;2.63;1.80;;;24.20;99.90;;;;;;5016670;28;20046;-66
2022/07/24 10:06:07;;;;;;;3.35;1.90;;;24.40;99.90;;;;;;5016448;28;20116;-65
2022/07/24 10:08:35;;;;;;;3.42;1.90;;;24.50;99.90;;;;;;5016494;28;20129;-66
2022/07/24 10:11:01;;;;;;;4.38;2.20;;;24.70;99.90;;;;;;5016940;28;20053;-66
2022/07/24 10:13:28;;;;;;;3.08;1.85;;;24.80;99.90;;;;;;5016472;28;20050;-66
2022/07/24 10:16:14;;;;;;;3.05;1.83;;;24.90;99.90;;;;;;5016417;28;20054;-65
2022/07/24 10:18:54;;;;;;;2.30;1.70;;;24.90;99.90;;;;;;5016577;28;20434;-66
2022/07/24 10:21:34;;;;;;;2.65;1.80;;;24.90;99.90;;;;;;5016320;28;20049;-65
2022/07/24 10:24:11;;;;;;;2.80;1.90;;;25.00;99.90;;;;;;5016161;28;20490;-65
2022/07/24 10:26:40;;;;;;;2.30;1.70;;;25.00;99.90;;;;;;5016579;28;20489;-66
2022/07/24 10:29:19;;;;;;;3.20;1.80;;;25.00;99.90;;;;;;5016117;28;20132;-66
2022/07/24 10:31:50;;;;;;;2.30;1.77;;;25.10;99.90;;;;;;5016061;28;20054;-65
2022/07/24 10:34:55;;;;;;;2.30;1.70;;;25.20;99.90;;;;;;5016122;28;20417;-66
2022/07/24 10:37:31;;;;;;;2.42;1.70;;;25.20;99.90;;;;;;5016558;28;20056;-65
2022/07/24 10:40:19;;;;;;;2.63;1.65;;;25.20;99.90;;;;;;5015872;28;20046;-66
2022/07/24 10:43:08;;;;;;;3.33;1.90;;;25.30;99.90;;;;;;5003119;28;20053;-65
2022/07/24 10:45:54;;;;;;;3.00;1.40;;;25.40;99.90;;;;;;4998964;28;20209;-65
2022/07/24 10:48:20;;;;;;;2.72;1.58;;;25.40;99.90;;;;;;4984430;28;20062;-66
2022/07/24 10:50:57;;;;;;;2.72;1.50;;;25.30;99.90;;;;;;5015672;28;20050;-65
2022/07/24 10:53:35;;;;;;;2.83;1.50;;;25.20;99.90;;;;;;5016319;28;20439;-66
2022/07/24 10:56:26;;;;;;;3.65;1.40;;;25.30;99.90;;;;;;4998315;28;20042;-67
2022/07/24 10:59:03;;;;;;;2.22;1.50;;;25.40;99.90;;;;;;5015519;28;20042;-66
2022/07/24 11:01:53;;;;;;;2.20;1.52;;;25.60;99.90;;;;;;5015855;28;20052;-66
2022/07/24 11:04:19;;;;;;;2.10;1.40;;;25.80;99.90;;;;;;5015217;28;20514;-65
2022/07/24 11:06:56;;;;;;;2.67;1.70;;;25.90;99.90;;;;;;5015394;28;20058;-65
2022/07/24 11:09:26;;;;;;;2.13;1.48;;;26.00;99.90;;;;;;5016020;28;20088;-65
2022/07/24 11:11:52;;;;;;;2.30;1.20;;;25.90;99.90;;;;;;5016063;28;20037;-65
2022/07/24 11:14:38;;;;;;;3.20;1.40;;;25.90;99.90;;;;;;5015222;28;20418;-65
2022/07/24 11:17:38;;;;;;;4.30;1.45;;;26.00;99.90;;;;;;5000955;28;20061;-66
2022/07/24 11:20:07;;;;;;;2.30;1.52;;;26.10;99.90;;;;;;5015111;28;20095;-66
2022/07/24 11:23:00;;;;;;;2.08;1.50;;;26.30;99.90;;;;;;5015040;28;20132;-65
2022/07/24 11:25:27;;;;;;;2.28;1.60;;;26.30;99.90;;;;;;5014987;28;20399;-65
2022/07/24 11:28:07;;;;;;;2.17;1.38;;;26.20;99.90;;;;;;5015000;28;20081;-67
2022/07/24 11:30:33;;;;;;;2.03;1.38;;;26.10;99.90;;;;;;5014955;28;20052;-66
2022/07/24 11:32:59;;;;;;;2.30;1.60;;;26.10;99.90;;;;;;5014784;28;20038;-66
2022/07/24 11:35:36;;;;;;;2.72;1.50;;;25.90;99.90;;;;;;5015009;28;20050;-65
2022/07/24 11:38:04;;;;;;;2.17;1.50;;;25.70;99.90;;;;;;5014801;28;20156;-66
2022/07/24 11:40:30;;;;;;;2.55;1.48;;;25.60;99.90;;;;;;5015487;28;20069;-65
2022/07/24 11:42:58;;;;;;;2.15;1.40;;;25.70;99.90;;;;;;5014630;28;20116;-66
2022/07/24 11:45:24;;;;;;;3.78;1.58;;;25.70;99.90;;;;;;5015129;28;20134;-66
2022/07/24 11:47:50;;;;;;;2.65;1.50;;;26.00;99.90;;;;;;4997299;28;20058;-66
2022/07/24 11:50:20;;;;;;;2.10;1.50;;;26.10;99.90;;;;;;5014476;28;20376;-65
2022/07/24 11:52:46;;;;;;;2.40;1.50;;;26.10;99.90;;;;;;5014932;28;20050;-65
2022/07/24 11:55:15;;;;;;;2.47;1.40;;;26.20;99.90;;;;;;5014502;28;20104;-65
2022/07/24 11:57:43;;;;;;;2.15;1.70;;;26.20;99.90;;;;;;4997374;28;20046;-66
2022/07/24 12:00:12;;;;;;;2.00;1.60;;;26.20;99.90;;;;;;5014797;28;20046;-66
2022/07/24 12:02:52;;;;;;;1.85;1.33;;;26.20;99.90;;;;;;5014417;28;20080;-65
2022/07/24 12:05:27;;;;;;;2.90;1.60;;;26.30;99.90;;;;;;5014873;28;20057;-66
2022/07/24 12:07:56;;;;;;;2.28;1.63;;;26.30;99.90;;;;;;5014832;28;20053;-65
2022/07/24 12:10:22;;;;;;;2.42;1.45;;;26.40;99.90;;;;;;5014226;28;20094;-66
2022/07/24 12:12:56;;;;;;;2.25;1.52;;;26.40;99.90;;;;;;5014139;28;20493;-66
2022/07/24 12:15:24;;;;;;;2.83;1.73;;;26.40;99.90;;;;;;5014171;28;20128;-66
2022/07/24 12:17:55;;;;;;;2.30;1.50;;;26.40;99.90;;;;;;5014825;28;20049;-66
2022/07/24 12:20:36;;;;;;;2.13;1.52;;;26.30;99.90;;;;;;5013368;28;20037;-66
2022/07/24 12:23:04;;;;;;;3.22;1.60;;;26.40;99.90;;;;;;5014392;28;20049;-66
2022/07/24 12:25:30;;;;;;;3.30;1.52;;;26.40;99.90;;;;;;5013995;28;20100;-66
2022/07/24 12:28:07;;;;;;;2.40;1.60;;;26.50;99.90;;;;;;5013995;28;20041;-66
2022/07/24 12:30:39;;;;;;;2.28;1.52;;;26.50;99.90;;;;;;5013648;28;20502;-66
2022/07/24 12:33:26;;;;;;;2.45;1.75;;;26.50;99.90;;;;;;5013473;28;20506;-66
2022/07/24 12:36:00;;;;;;;3.13;1.80;;;26.50;99.90;;;;;;5014802;28;20411;-67
2022/07/24 12:38:33;;;;;;;2.42;1.55;;;26.50;99.90;;;;;;5013903;28;20060;-67
2022/07/24 12:41:10;;;;;;;2.40;1.65;;;26.50;99.90;;;;;;5014024;28;20566;-66
2022/07/24 12:43:52;;;;;;;2.10;1.50;;;26.60;99.90;;;;;;5013974;28;20466;-66
2022/07/24 12:46:23;;;;;;;2.40;1.65;;;26.60;99.90;;;;;;4997108;28;20144;-67
2022/07/24 12:49:00;;;;;;;2.40;1.90;;;26.70;99.90;;;;;;5013699;28;20045;-67
2022/07/24 12:51:27;;;;;;;3.55;2.03;;;26.80;99.90;;;;;;5014148;28;20470;-66